createdAt,value
2017-04-17T08:55:44.518Z,96.41
2017-04-17T08:56:24.976Z,96.6
2017-04-17T08:57:05.456Z,96.98
2017-04-17T08:57:45.877Z,97.17
2017-04-17T08:58:26.300Z,96.88
2017-04-17T08:59:06.748Z,96.98
2017-04-17T08:59:47.189Z,97.07
2017-04-17T09:00:27.606Z,97.07
2017-04-17T09:02:40.554Z,96.98
2017-04-17T09:03:20.992Z,96.79
2017-04-17T09:04:01.483Z,96.6
2017-04-17T09:04:42.537Z,96.79
2017-04-17T09:05:22.950Z,96.88
2017-04-17T09:06:03.363Z,96.88
2017-04-17T09:06:43.799Z,97.17
2017-04-17T09:07:24.229Z,97.45
2017-04-17T09:08:04.654Z,97.27
2017-04-17T09:08:45.110Z,97.55
2017-04-17T09:09:25.546Z,97.64
2017-04-17T09:10:05.986Z,97.36
2017-04-17T09:10:46.439Z,97.27
2017-04-17T09:11:26.848Z,97.64
2017-04-17T09:12:07.259Z,97.64
2017-04-17T09:12:48.438Z,97.17
2017-04-17T09:13:28.874Z,97.45
2017-04-17T09:14:09.292Z,97.27
2017-04-17T09:14:49.699Z,97.45
2017-04-17T09:15:30.126Z,97.27
2017-04-17T09:16:10.551Z,96.69
2017-04-17T09:16:50.993Z,97.17
2017-04-17T09:17:31.439Z,97.07
2017-04-17T09:18:11.905Z,96.79
2017-04-17T09:18:52.345Z,97.64
2017-04-17T09:19:32.841Z,97.64
2017-04-17T09:20:13.285Z,97.36
2017-04-17T09:22:26.264Z,97.41
2017-04-17T09:23:06.705Z,97.27
2017-04-17T09:23:47.157Z,97.36
2017-04-17T09:24:27.613Z,97.27
2017-04-17T09:25:08.005Z,97.27
2017-04-17T09:25:48.408Z,97.36
2017-04-17T09:26:28.807Z,97.22
2017-04-17T09:27:09.240Z,97.41
2017-04-17T09:27:49.670Z,97.5
2017-04-17T09:28:30.104Z,97.97
2017-04-17T09:29:10.548Z,97.97
2017-04-17T09:29:51.624Z,97.69
2017-04-17T09:30:32.065Z,97.22
2017-04-17T09:31:12.481Z,97.41
2017-04-17T09:33:01.031Z,97.69
2017-04-17T09:33:41.477Z,97.41
2017-04-17T09:34:21.930Z,98.26
2017-04-17T09:35:02.354Z,98.36
2017-04-17T09:35:42.868Z,98.26
2017-04-17T09:36:23.296Z,98.26
2017-04-17T09:37:03.752Z,97.97
2017-04-17T09:37:44.143Z,98.17
2017-04-17T09:38:24.573Z,97.97
2017-04-17T09:39:04.991Z,98.22
2017-04-17T09:39:45.445Z,98.03
2017-04-17T09:40:25.902Z,98.12
2017-04-17T09:41:06.327Z,98.03
2017-04-17T09:41:46.728Z,98.12
2017-04-17T09:42:27.147Z,98.03
2017-04-17T09:43:07.580Z,98.12
2017-04-17T09:45:05.401Z,98.22
2017-04-17T09:45:45.850Z,98.12
2017-04-17T09:46:26.269Z,97.93
2017-04-17T09:47:06.718Z,98.22
2017-04-17T09:47:47.155Z,98.12
2017-04-17T09:48:27.559Z,98.27
2017-04-17T09:49:07.970Z,98.12
2017-04-17T09:49:48.412Z,98.17
2017-04-17T09:50:28.827Z,98.17
2017-04-17T09:51:09.946Z,98.36
2017-04-17T09:51:50.367Z,98.17
2017-04-17T09:52:30.848Z,97.98
2017-04-17T09:53:11.236Z,98.08
2017-04-17T09:53:51.668Z,98.08
2017-04-17T09:54:32.113Z,98.36
2017-04-17T09:55:12.589Z,98.08
2017-04-17T09:55:53.027Z,98.08
2017-04-17T09:56:33.420Z,98.27
2017-04-17T09:57:13.840Z,97.98
2017-04-17T09:57:54.302Z,98.55
2017-04-17T09:58:34.720Z,98.12
2017-04-17T09:59:15.159Z,98.41
2017-04-17T09:59:55.600Z,98.5
2017-04-17T10:00:36.115Z,98.5
2017-04-17T10:02:23.953Z,98.31
2017-04-17T10:03:04.421Z,98.12
2017-04-17T10:03:44.920Z,98.12
2017-04-17T10:04:25.291Z,98.03
2017-04-17T10:05:05.705Z,98.17
2017-04-17T10:05:46.129Z,98.69
2017-04-17T10:06:26.563Z,98.65
2017-04-17T10:07:06.989Z,98.69
2017-04-17T10:09:25.141Z,98.27
2017-04-17T10:10:05.581Z,98.41
2017-04-17T10:10:46.025Z,98.5
2017-04-17T10:11:26.474Z,98.36
2017-04-17T10:13:39.261Z,98.22
2017-04-17T10:14:19.696Z,98.5
2017-04-17T10:15:00.134Z,98.12
2017-04-17T10:15:40.579Z,97.93
2017-04-17T10:16:21.027Z,98.22
2017-04-17T10:17:01.459Z,98.12
2017-04-17T10:17:41.889Z,98.03
2017-04-17T10:18:22.314Z,98.31
2017-04-17T10:19:02.765Z,98.12
2017-04-17T10:19:43.163Z,98.22
2017-04-17T10:20:23.607Z,98.22
2017-04-17T10:21:04.052Z,98.36
2017-04-17T10:21:44.495Z,97.97
2017-04-17T10:22:24.909Z,98.26
2017-04-17T19:09:03.125Z,99.99
2017-04-17T19:09:43.554Z,99.99
2017-04-17T19:10:24.006Z,99.99
2017-04-17T19:11:04.474Z,99.99
2017-04-17T19:11:44.905Z,99.99
2017-04-17T19:12:25.305Z,99.99
2017-04-17T19:13:05.713Z,99.99
2017-04-17T19:13:46.116Z,99.99
2017-04-17T19:14:27.341Z,99.99
2017-04-17T19:15:08.326Z,99.99
2017-04-17T19:15:48.873Z,99.99
2017-04-17T19:16:29.595Z,99.99
2017-04-17T19:17:09.957Z,99.99
2017-04-17T19:17:50.885Z,99.99
2017-04-17T19:18:32.160Z,99.99
2017-04-17T19:19:13.155Z,99.99
2017-04-17T19:19:53.614Z,99.99
2017-04-17T19:20:34.019Z,99.99
2017-04-17T19:21:14.586Z,99.99
2017-04-17T19:21:55.226Z,99.99
2017-04-17T19:22:35.668Z,99.99
2017-04-17T19:23:16.075Z,99.99
2017-04-17T19:23:57.091Z,99.99
2017-04-17T19:24:38.534Z,99.99
2017-04-17T19:25:18.924Z,99.99
2017-04-17T19:25:59.389Z,99.99
2017-04-17T19:26:39.918Z,99.99
2017-04-17T19:27:20.392Z,99.99
2017-04-17T19:28:00.780Z,99.99
2017-04-17T19:28:41.239Z,99.99
2017-04-17T19:29:22.760Z,99.99
2017-04-17T19:30:03.830Z,99.99
2017-04-17T19:30:44.325Z,99.99
2017-04-17T19:31:25.559Z,99.99
2017-04-17T19:32:06.708Z,99.99
2017-04-17T19:32:48.054Z,99.99
2017-04-17T19:33:28.484Z,99.99
2017-04-17T19:34:08.874Z,99.99
2017-04-17T19:34:49.322Z,99.99
2017-04-17T19:35:29.740Z,99.99
2017-04-17T19:36:10.173Z,99.99
2017-04-17T19:36:50.620Z,99.99
2017-04-17T19:38:39.630Z,99.99
2017-04-17T19:39:20.971Z,99.99
2017-04-17T19:40:02.295Z,99.99
2017-04-17T19:40:42.782Z,99.99
2017-04-17T19:41:23.248Z,99.99
2017-04-17T19:42:06.316Z,99.99
2017-04-17T19:42:48.406Z,99.99
2017-04-17T19:43:32.425Z,99.99
2017-04-17T19:44:16.403Z,99.99
2017-04-17T19:44:59.414Z,99.99
2017-04-17T19:45:42.573Z,99.99
2017-04-17T19:46:24.902Z,99.99
2017-04-17T19:47:07.266Z,99.99
2017-04-17T19:47:49.633Z,99.99
2017-04-17T19:48:31.743Z,99.99
2017-04-17T19:49:12.223Z,99.99
2017-04-17T19:49:54.538Z,99.82
2017-04-17T19:50:36.823Z,99.91
2017-04-17T19:51:19.064Z,99.99
2017-04-17T19:51:59.493Z,99.82
2017-04-17T19:53:47.432Z,99.35
2017-04-17T19:54:27.922Z,99.11
2017-04-17T19:55:08.356Z,98.92
2017-04-17T19:55:49.423Z,99.16
2017-04-17T19:56:30.808Z,99.01
2017-04-17T19:57:11.224Z,98.63
2017-04-17T19:57:51.649Z,98.73
2017-04-17T19:58:32.074Z,98.35
2017-04-17T20:00:30.175Z,98.54
2017-04-17T20:01:10.643Z,98.63
2017-04-17T20:01:51.714Z,98.63
2017-04-17T20:02:32.118Z,98.92
2017-04-17T20:03:12.528Z,98.92
2017-04-17T20:03:52.985Z,98.82
2017-04-17T20:04:33.371Z,98.63
2017-04-17T20:05:14.442Z,99.01
2017-04-17T20:05:54.880Z,98.92
2017-04-17T20:07:42.607Z,99.3
2017-04-17T20:08:23.042Z,99.3
2017-04-17T20:10:15.787Z,99.99
2017-04-17T20:10:56.207Z,99.99
2017-04-17T20:11:36.676Z,99.82
2017-04-17T20:12:17.966Z,99.63
2017-04-17T20:12:58.386Z,99.99
2017-04-17T20:13:41.394Z,99.82
